createdAt,value
2022-09-07T00:01:11.617Z,100966.36
2022-09-07T00:03:39.573Z,100962.59
2022-09-07T00:06:11.263Z,100959.30
2022-09-07T00:08:41.380Z,100958.74
2022-09-07T00:11:17.572Z,100960.63
2022-09-07T00:13:48.671Z,100958.05
2022-09-07T00:16:21.557Z,100956.66
2022-09-07T00:18:50.122Z,100955.61
2022-09-07T00:21:18.457Z,100955.45
2022-09-07T00:23:49.942Z,100955.36
2022-09-07T00:26:23.152Z,100960.80
2022-09-07T00:28:52.194Z,100963.38
2022-09-07T00:31:23.357Z,100962.13
2022-09-07T00:33:54.015Z,100964.43
2022-09-07T00:36:22.717Z,100967.33
2022-09-07T00:38:51.604Z,100966.14
2022-09-07T00:41:22.208Z,100962.87
2022-09-07T00:43:54.434Z,100959.83
2022-09-07T00:46:26.863Z,100960.70
2022-09-07T00:49:08.192Z,100959.31
2022-09-07T00:51:56.006Z,100959.62
2022-09-07T00:54:32.134Z,100960.82
2022-09-07T00:57:00.470Z,100959.20
2022-09-07T00:59:46.138Z,100954.95
2022-09-07T01:02:17.267Z,100950.78
2022-09-07T01:04:51.818Z,100948.36
2022-09-07T01:07:20.219Z,100948.16
2022-09-07T01:09:48.318Z,100947.48
2022-09-07T01:12:16.547Z,100948.88
2022-09-07T01:14:50.708Z,100950.48
2022-09-07T01:17:31.841Z,100950.34
2022-09-07T01:20:43.947Z,100955.79
2022-09-07T01:24:01.355Z,100954.73
2022-09-07T01:26:57.308Z,100956.01
2022-09-07T01:29:39.278Z,100951.06
2022-09-07T01:32:16.255Z,100946.75
2022-09-07T01:34:52.419Z,100941.80
2022-09-07T01:37:43.655Z,100938.52
2022-09-07T01:40:19.383Z,100937.44
2022-09-07T01:43:00.687Z,100930.90
2022-09-07T01:45:34.973Z,100927.36
2022-09-07T01:48:09.148Z,100923.23
2022-09-07T01:51:05.326Z,100922.22
2022-09-07T01:53:42.055Z,100921.71
2022-09-07T01:56:23.372Z,100918.98
2022-09-07T01:59:04.632Z,100918.94
2022-09-07T02:01:58.035Z,100917.39
2022-09-07T02:04:35.938Z,100915.38
2022-09-07T02:07:21.363Z,100913.07
2022-09-07T02:10:02.608Z,100916.95
2022-09-07T02:12:56.515Z,100921.83
2022-09-07T02:15:39.039Z,100921.36
2022-09-07T02:18:10.667Z,100923.89
2022-09-07T02:20:42.442Z,100925.95
2022-09-07T02:23:19.183Z,100924.94
2022-09-07T02:25:55.155Z,100927.95
2022-09-07T02:28:29.373Z,100932.09
2022-09-07T02:30:57.457Z,100925.77
2022-09-07T02:33:26.233Z,100923.28
2022-09-07T02:35:55.129Z,100916.17
2022-09-07T02:38:23.833Z,100917.49
2022-09-07T02:40:57.885Z,100921.73
2022-09-07T02:43:28.200Z,100919.73
2022-09-07T02:46:22.601Z,100922.89
2022-09-07T02:48:59.543Z,100924.66
2022-09-07T02:51:47.396Z,100921.34
2022-09-07T02:55:06.770Z,100923.25
2022-09-07T02:58:16.262Z,100911.75
2022-09-07T03:01:08.041Z,100904.64
2022-09-07T03:04:25.902Z,100898.82
2022-09-07T03:07:27.868Z,100900.66
2022-09-07T03:09:58.284Z,100911.81
2022-09-07T03:12:41.840Z,100914.84
2022-09-07T03:15:13.583Z,100908.45
2022-09-07T03:17:43.208Z,100907.80
2022-09-07T03:20:11.146Z,100907.05
2022-09-07T03:22:39.695Z,100914.48
2022-09-07T03:25:08.482Z,100915.14
2022-09-07T03:27:36.905Z,100912.09
2022-09-07T03:30:07.098Z,100905.19
2022-09-07T03:32:37.554Z,100905.16
2022-09-07T03:35:08.063Z,100905.40
2022-09-07T03:37:37.739Z,100904.95
2022-09-07T03:40:09.212Z,100912.54
2022-09-07T03:42:37.788Z,100911.52
2022-09-07T03:45:07.391Z,100907.34
2022-09-07T03:47:37.197Z,100904.09
2022-09-07T03:50:07.136Z,100905.63
2022-09-07T03:52:37.087Z,100910.73
2022-09-07T03:55:05.528Z,100912.29
2022-09-07T03:57:34.004Z,100911.58
2022-09-07T04:00:04.635Z,100907.64
2022-09-07T04:02:40.515Z,100907.98
2022-09-07T04:05:08.987Z,100909.67
2022-09-07T04:07:37.080Z,100914.38
2022-09-07T04:10:05.318Z,100916.16
2022-09-07T04:12:33.291Z,100916.52
2022-09-07T04:15:01.162Z,100917.77
2022-09-07T04:17:29.067Z,100919.07
2022-09-07T04:19:57.290Z,100914.64
2022-09-07T04:22:25.174Z,100905.73
2022-09-07T04:24:53.039Z,100899.48
2022-09-07T04:27:20.958Z,100903.13
2022-09-07T04:29:48.862Z,100898.96
2022-09-07T04:32:16.854Z,100894.45
2022-09-07T04:34:44.758Z,100890.73
2022-09-07T04:37:12.645Z,100879.87
2022-09-07T04:39:40.584Z,100874.12
2022-09-07T04:42:08.523Z,100875.91
2022-09-07T04:44:36.398Z,100876.41
2022-09-07T04:47:04.360Z,100878.33
2022-09-07T04:49:32.337Z,100876.75
2022-09-07T04:52:00.370Z,100877.73
2022-09-07T04:54:28.552Z,100879.22
2022-09-07T04:56:56.519Z,100881.31
2022-09-07T04:59:25.655Z,100890.88
2022-09-07T05:01:53.588Z,100892.45
2022-09-07T05:04:21.607Z,100890.03
2022-09-07T05:06:49.601Z,100887.95
2022-09-07T05:09:17.511Z,100887.88
2022-09-07T05:11:45.476Z,100889.35
2022-09-07T05:14:13.338Z,100897.39
2022-09-07T05:16:41.294Z,100895.52
2022-09-07T05:19:12.423Z,100897.05
2022-09-07T05:21:40.378Z,100895.94
2022-09-07T05:24:09.459Z,100887.25
2022-09-07T05:26:39.971Z,100883.66
2022-09-07T05:31:56.768Z,100883.10
2022-09-07T05:36:56.841Z,100884.40
2022-09-07T05:39:25.332Z,100880.71
2022-09-07T05:41:53.989Z,100877.67
2022-09-07T05:47:11.141Z,100869.02
2022-09-07T05:49:39.039Z,100873.08
2022-09-07T05:52:07.078Z,100875.64
2022-09-07T05:54:35.105Z,100873.58
2022-09-07T05:57:03.702Z,100877.36
2022-09-07T05:59:31.728Z,100875.91
2022-09-07T06:02:00.153Z,100881.48
2022-09-07T06:04:28.250Z,100882.33
2022-09-07T06:07:18.099Z,100883.06
2022-09-07T06:12:32.011Z,100876.94
2022-09-07T06:15:01.466Z,100871.84
2022-09-07T06:17:31.112Z,100864.05
2022-09-07T06:19:59.174Z,100861.42
2022-09-07T06:22:30.706Z,100855.46
2022-09-07T06:24:59.519Z,100856.25
2022-09-07T06:27:27.954Z,100863.23
2022-09-07T06:29:56.203Z,100867.38
2022-09-07T06:35:13.206Z,100860.15
2022-09-07T06:37:41.659Z,100857.36
2022-09-07T06:40:12.063Z,100860.56
2022-09-07T06:42:40.622Z,100859.95
2022-09-07T06:45:11.236Z,100859.27
2022-09-07T06:47:40.266Z,100866.34
2022-09-07T06:50:10.062Z,100867.13
2022-09-07T06:55:28.279Z,100865.78
2022-09-07T06:57:56.528Z,100869.96
2022-09-07T07:00:25.061Z,100872.08
2022-09-07T07:02:53.244Z,100872.98
2022-09-07T07:05:21.230Z,100871.39
2022-09-07T07:07:49.160Z,100864.91
2022-09-07T07:10:19.751Z,100857.95
2022-09-07T07:12:53.068Z,100860.70
2022-09-07T07:15:21.274Z,100861.77
2022-09-07T07:17:56.129Z,100864.71
2022-09-07T07:20:27.431Z,100866.70
2022-09-07T07:22:55.307Z,100867.80
2022-09-07T07:25:23.662Z,100865.52
2022-09-07T07:27:51.727Z,100869.47
2022-09-07T07:30:20.798Z,100863.55
2022-09-07T07:32:48.682Z,100868.77
2022-09-07T07:35:16.994Z,100873.60
2022-09-07T07:37:44.925Z,100873.23
2022-09-07T07:42:46.241Z,100873.67
2022-09-07T07:48:03.097Z,100877.08
2022-09-07T07:50:31.994Z,100875.81
2022-09-07T07:55:49.022Z,100864.81
2022-09-07T07:58:17.185Z,100862.55
2022-09-07T08:01:00.697Z,100861.97
2022-09-07T08:03:29.353Z,100860.25
2022-09-07T08:06:04.886Z,100861.05
2022-09-07T08:08:32.842Z,100857.22
2022-09-07T08:11:08.217Z,100859.78
2022-09-07T08:13:38.034Z,100857.64
2022-09-07T08:16:06.621Z,100860.15
2022-09-07T08:18:35.837Z,100857.44
2022-09-07T08:21:11.370Z,100857.73
2022-09-07T08:23:41.306Z,100855.43
2022-09-07T08:26:09.778Z,100858.98
2022-09-07T08:28:41.060Z,100863.12
2022-09-07T08:31:14.639Z,100862.05
2022-09-07T08:33:43.090Z,100852.48
2022-09-07T08:36:19.141Z,100855.16
2022-09-07T08:38:47.995Z,100850.45
2022-09-07T08:41:47.157Z,100849.77
2022-09-07T08:44:38.426Z,100847.94
2022-09-07T08:47:44.359Z,100847.23
2022-09-07T08:50:25.850Z,100849.77
2022-09-07T08:53:20.948Z,100844.22
2022-09-07T08:56:11.588Z,100843.23
2022-09-07T08:58:53.866Z,100834.89
2022-09-07T09:01:37.031Z,100835.18
2022-09-07T09:04:20.180Z,100834.75
2022-09-07T09:07:17.273Z,100829.90
2022-09-07T09:10:19.724Z,100831.27
2022-09-07T09:13:18.126Z,100828.80
2022-09-07T09:16:05.472Z,100836.06
2022-09-07T09:19:16.882Z,100840.24
2022-09-07T09:21:45.700Z,100831.83
2022-09-07T09:24:19.566Z,100836.11
2022-09-07T09:26:54.275Z,100827.93
2022-09-07T09:29:23.840Z,100824.29
2022-09-07T09:31:53.459Z,100819.77
2022-09-07T09:34:23.980Z,100821.56
2022-09-07T09:36:56.719Z,100812.08
2022-09-07T09:39:33.728Z,100813.73
2022-09-07T09:42:22.339Z,100810.23
2022-09-07T09:44:50.799Z,100806.15
2022-09-07T09:47:38.318Z,100798.49
2022-09-07T09:53:34.141Z,100785.25
2022-09-07T09:56:04.090Z,100788.45
2022-09-07T10:01:35.943Z,100785.15
2022-09-07T10:04:24.633Z,100780.41
2022-09-07T10:07:12.075Z,100777.75
2022-09-07T10:09:49.064Z,100780.44
2022-09-07T10:12:32.017Z,100779.71
2022-09-07T10:15:03.479Z,100777.04
2022-09-07T10:17:48.378Z,100776.50
2022-09-07T10:20:16.298Z,100776.67
2022-09-07T10:22:57.014Z,100780.68
2022-09-07T10:25:40.484Z,100772.63
2022-09-07T10:28:15.075Z,100767.77
2022-09-07T10:31:11.169Z,100766.53
2022-09-07T10:37:16.787Z,100764.27
2022-09-07T10:40:20.750Z,100753.34
2022-09-07T10:43:21.409Z,100746.10
2022-09-07T10:46:14.932Z,100743.87
2022-09-07T10:49:15.477Z,100745.45
2022-09-07T10:52:07.572Z,100749.02
2022-09-07T10:55:07.640Z,100747.80
2022-09-07T10:57:49.131Z,100748.87
2022-09-07T11:00:20.369Z,100756.21
2022-09-07T11:03:29.993Z,100751.95
2022-09-07T11:06:10.855Z,100742.83
2022-09-07T11:12:03.022Z,100747.13
2022-09-07T11:14:50.752Z,100743.49
2022-09-07T11:17:24.725Z,100742.39
2022-09-07T11:20:44.551Z,100746.23
2022-09-07T11:23:29.111Z,100749.77
2022-09-07T11:26:39.695Z,100744.11
2022-09-07T11:29:32.679Z,100740.98
2022-09-07T11:32:12.081Z,100734.20
2022-09-07T11:34:46.770Z,100730.21
2022-09-07T11:37:57.505Z,100729.45
2022-09-07T11:40:35.266Z,100725.25
2022-09-07T11:43:20.554Z,100720.56
2022-09-07T11:45:55.442Z,100708.30
2022-09-07T11:48:42.475Z,100715.42
2022-09-07T11:52:05.644Z,100713.02
2022-09-07T11:54:45.819Z,100709.10
2022-09-07T11:58:00.143Z,100708.50
2022-09-07T12:00:46.079Z,100710.95
2022-09-07T12:04:26.166Z,100713.11
2022-09-07T12:07:35.108Z,100708.65
2022-09-07T12:10:26.640Z,100703.53
2022-09-07T12:13:10.444Z,100696.30
2022-09-07T12:16:09.768Z,100694.93
2022-09-07T12:19:15.094Z,100693.08
2022-09-07T12:22:05.427Z,100683.27
2022-09-07T12:24:48.527Z,100683.87
2022-09-07T12:27:22.492Z,100690.08
2022-09-07T12:30:01.674Z,100697.40
2022-09-07T12:32:56.976Z,100697.91
2022-09-07T12:35:31.555Z,100693.73
2022-09-07T12:38:00.499Z,100689.77
2022-09-07T12:40:28.695Z,100685.55
2022-09-07T12:43:14.703Z,100682.63
2022-09-07T12:45:42.615Z,100674.59
2022-09-07T12:48:16.229Z,100675.98
2022-09-07T12:50:56.096Z,100670.61
2022-09-07T12:54:14.535Z,100670.56
2022-09-07T12:57:34.929Z,100666.67
2022-09-07T13:00:24.306Z,100659.36
2022-09-07T13:03:50.101Z,100657.11
2022-09-07T13:09:41.675Z,100656.22
2022-09-07T13:15:48.899Z,100653.67
2022-09-07T13:18:26.645Z,100645.48
2022-09-07T13:21:18.402Z,100644.14
2022-09-07T13:27:27.522Z,100641.65
2022-09-07T13:30:05.158Z,100638.64
2022-09-07T13:35:24.667Z,100627.39
2022-09-07T13:38:02.102Z,100624.84
2022-09-07T13:40:34.938Z,100622.36
2022-09-07T13:43:04.467Z,100616.84
2022-09-07T13:45:53.593Z,100610.48
2022-09-07T13:48:49.024Z,100600.90
2022-09-07T13:51:31.175Z,100603.79
2022-09-07T13:54:08.452Z,100606.73
2022-09-07T13:57:06.605Z,100605.47
2022-09-07T13:59:35.430Z,100605.05
2022-09-07T14:02:03.655Z,100602.43
2022-09-07T14:04:41.823Z,100601.16
2022-09-07T14:07:16.511Z,100602.48
2022-09-07T14:09:44.467Z,100596.23
2022-09-07T14:12:16.485Z,100590.55
2022-09-07T14:14:44.587Z,100586.17
2022-09-07T14:17:19.327Z,100587.79
2022-09-07T14:19:51.508Z,100589.80
2022-09-07T14:22:30.902Z,100592.98
2022-09-07T14:25:01.798Z,100591.09
2022-09-07T14:27:37.778Z,100590.48
2022-09-07T14:30:33.390Z,100590.61
2022-09-07T14:33:17.121Z,100593.92
2022-09-07T14:35:45.049Z,100593.59
2022-09-07T14:41:20.854Z,100590.11
2022-09-07T14:43:58.283Z,100589.82
2022-09-07T14:46:30.782Z,100586.80
2022-09-07T14:49:03.203Z,100586.98
2022-09-07T14:51:36.846Z,100590.25
2022-09-07T14:54:07.903Z,100583.42
2022-09-07T14:56:41.990Z,100585.64
2022-09-07T14:59:38.826Z,100581.61
2022-09-07T15:02:18.786Z,100582.38
2022-09-07T15:04:49.542Z,100573.84
2022-09-07T15:07:47.352Z,100580.80
2022-09-07T15:10:21.148Z,100570.22
2022-09-07T15:12:51.776Z,100570.14
2022-09-07T15:15:35.351Z,100567.11
2022-09-07T15:18:26.748Z,100564.87
2022-09-07T15:20:54.756Z,100564.91
2022-09-07T15:23:22.617Z,100564.41
2022-09-07T15:25:53.687Z,100565.79
2022-09-07T15:34:16.216Z,100560.30
2022-09-07T15:36:52.493Z,100556.14
2022-09-07T15:39:30.278Z,100558.54
2022-09-07T15:42:00.517Z,100556.23
2022-09-07T15:44:46.934Z,100552.89
2022-09-07T15:50:05.553Z,100542.62
2022-09-07T15:52:33.803Z,100543.98
2022-09-07T15:55:01.745Z,100542.89
2022-09-07T16:00:19.714Z,100557.47
2022-09-07T16:03:06.100Z,100555.10
2022-09-07T16:05:34.989Z,100548.08
2022-09-07T16:10:55.143Z,100542.70
2022-09-07T16:13:24.321Z,100543.10
2022-09-07T16:15:52.487Z,100536.67
2022-09-07T16:18:20.378Z,100543.23
2022-09-07T16:20:52.730Z,100540.71
2022-09-07T16:23:21.277Z,100542.33
2022-09-07T16:25:58.505Z,100542.52
2022-09-07T16:28:27.280Z,100540.05
2022-09-07T16:30:56.286Z,100541.36
2022-09-07T16:33:34.350Z,100540.11
2022-09-07T16:36:10.163Z,100537.90
2022-09-07T16:38:47.052Z,100529.38
2022-09-07T16:41:20.483Z,100528.85
2022-09-07T16:43:49.698Z,100527.94
2022-09-07T16:46:24.693Z,100527.55
2022-09-07T16:48:53.460Z,100523.11
2022-09-07T16:51:28.575Z,100525.66
2022-09-07T16:54:07.368Z,100522.24
2022-09-07T16:56:39.042Z,100519.30
2022-09-07T16:59:11.222Z,100520.23
2022-09-07T17:01:39.783Z,100521.77
2022-09-07T17:04:17.250Z,100522.37
2022-09-07T17:06:48.151Z,100524.81
2022-09-07T17:09:19.072Z,100529.45
2022-09-07T17:11:50.332Z,100528.58
2022-09-07T17:14:26.190Z,100533.02
2022-09-07T17:16:59.023Z,100538.82
2022-09-07T17:19:34.727Z,100537.40
2022-09-07T17:22:03.908Z,100530.81
2022-09-07T17:24:32.611Z,100522.44
2022-09-07T17:27:01.484Z,100520.42
2022-09-07T17:29:37.216Z,100521.30
2022-09-07T17:34:55.349Z,100520.52
2022-09-07T17:37:23.263Z,100516.75
2022-09-07T17:39:51.852Z,100517.47
2022-09-07T17:42:20.070Z,100517.77
2022-09-07T17:44:52.789Z,100516.80
2022-09-07T17:47:21.346Z,100519.20
2022-09-07T17:49:49.169Z,100523.28
2022-09-07T17:52:17.140Z,100525.34
2022-09-07T17:54:45.097Z,100532.64
2022-09-07T17:57:12.986Z,100538.96
2022-09-07T18:02:37.956Z,100550.70
2022-09-07T18:05:07.463Z,100554.14
2022-09-07T18:07:35.477Z,100558.52
2022-09-07T18:10:03.641Z,100563.08
2022-09-07T18:12:32.765Z,100570.05
2022-09-07T18:15:01.142Z,100570.02
2022-09-07T18:17:28.998Z,100564.75
2022-09-07T18:19:57.325Z,100563.17
2022-09-07T18:22:25.310Z,100571.08
2022-09-07T18:24:53.263Z,100568.90
2022-09-07T18:27:21.422Z,100567.23
2022-09-07T18:29:49.266Z,100562.95
2022-09-07T18:32:17.757Z,100556.89
2022-09-07T18:34:50.226Z,100569.41
2022-09-07T18:37:19.510Z,100570.93
2022-09-07T18:39:48.686Z,100575.18
2022-09-07T18:42:17.089Z,100579.46
2022-09-07T18:47:34.951Z,100586.41
2022-09-07T18:50:03.373Z,100585.06
2022-09-07T18:55:19.303Z,100580.63
2022-09-07T18:57:47.383Z,100578.31
2022-09-07T19:00:15.405Z,100577.41
2022-09-07T19:02:43.292Z,100582.77
2022-09-07T19:07:59.769Z,100588.12
2022-09-07T19:10:28.277Z,100588.98
2022-09-07T19:12:59.035Z,100588.58
2022-09-07T19:15:27.111Z,100582.30
2022-09-07T19:17:55.036Z,100583.21
2022-09-07T19:20:22.937Z,100581.80
2022-09-07T19:22:50.939Z,100578.19
2022-09-07T19:25:19.411Z,100577.16
2022-09-07T19:27:47.422Z,100574.02
2022-09-07T19:30:17.279Z,100574.33
2022-09-07T19:32:45.174Z,100572.89
2022-09-07T19:35:13.038Z,100565.95
2022-09-07T19:37:40.999Z,100563.16
2022-09-07T19:40:14.804Z,100561.27
2022-09-07T19:42:46.571Z,100557.89
2022-09-07T19:45:15.468Z,100559.51
2022-09-07T19:47:43.412Z,100563.67
2022-09-07T19:50:11.385Z,100562.40
2022-09-07T19:52:39.220Z,100559.99
2022-09-07T19:55:07.991Z,100561.91
2022-09-07T19:57:35.927Z,100559.46
2022-09-07T20:00:04.992Z,100557.43
2022-09-07T20:02:40.256Z,100557.11
2022-09-07T20:05:08.458Z,100551.67
2022-09-07T20:07:36.331Z,100552.06
2022-09-07T20:10:04.643Z,100540.46
2022-09-07T20:12:32.654Z,100541.42
2022-09-07T20:15:00.578Z,100540.46
2022-09-07T20:17:33.054Z,100539.70
2022-09-07T20:20:04.552Z,100538.66
2022-09-07T20:22:32.453Z,100536.52
2022-09-07T20:25:00.251Z,100533.40
2022-09-07T20:27:28.135Z,100536.20
2022-09-07T20:29:56.102Z,100535.84
2022-09-07T20:32:24.472Z,100532.48
2022-09-07T20:34:53.087Z,100531.67
2022-09-07T20:37:20.968Z,100535.02
2022-09-07T20:39:48.888Z,100529.76
2022-09-07T20:42:16.748Z,100525.66
2022-09-07T20:44:45.129Z,100524.59
2022-09-07T20:47:13.073Z,100527.34
2022-09-07T20:49:40.918Z,100526.73
2022-09-07T20:52:08.735Z,100527.45
2022-09-07T20:54:38.689Z,100522.56
2022-09-07T20:57:06.526Z,100524.30
2022-09-07T20:59:34.407Z,100527.45
2022-09-07T21:02:02.340Z,100526.03
2022-09-07T21:04:30.398Z,100521.86
2022-09-07T21:06:58.255Z,100520.61
2022-09-07T21:09:26.125Z,100519.63
2022-09-07T21:11:57.167Z,100524.27
2022-09-07T21:14:25.239Z,100523.08
2022-09-07T21:16:53.232Z,100527.23
2022-09-07T21:19:21.220Z,100530.59
2022-09-07T21:21:49.352Z,100530.17
2022-09-07T21:24:20.753Z,100525.91
2022-09-07T21:26:50.353Z,100524.50
2022-09-07T21:29:22.836Z,100522.01
2022-09-07T21:31:54.407Z,100525.64
2022-09-07T21:34:22.858Z,100528.33
2022-09-07T21:36:50.911Z,100525.95
2022-09-07T21:39:19.298Z,100518.48
2022-09-07T21:41:47.102Z,100516.90
2022-09-07T21:44:16.602Z,100519.77
2022-09-07T21:46:44.654Z,100523.44
2022-09-07T21:49:12.745Z,100519.59
2022-09-07T21:51:40.586Z,100528.30
2022-09-07T21:54:08.750Z,100531.44
2022-09-07T21:56:36.600Z,100533.56
2022-09-07T21:59:06.505Z,100539.61
2022-09-07T22:01:34.437Z,100518.67
2022-09-07T22:04:06.935Z,100519.22
2022-09-07T22:06:35.848Z,100519.33
2022-09-07T22:09:05.053Z,100518.02
2022-09-07T22:11:33.099Z,100519.77
2022-09-07T22:14:03.725Z,100523.27
2022-09-07T22:16:34.485Z,100522.55
2022-09-07T22:19:03.013Z,100521.84
2022-09-07T22:21:31.190Z,100511.95
2022-09-07T22:24:05.238Z,100513.02
2022-09-07T22:26:39.938Z,100511.98
2022-09-07T22:29:11.654Z,100508.36
2022-09-07T22:31:41.018Z,100507.56
2022-09-07T22:34:10.294Z,100511.38
2022-09-07T22:36:43.934Z,100510.39
2022-09-07T22:39:16.055Z,100513.48
2022-09-07T22:41:45.838Z,100504.55
2022-09-07T22:44:16.795Z,100500.13
2022-09-07T22:46:47.129Z,100506.47
2022-09-07T22:49:17.350Z,100500.15
2022-09-07T22:51:45.839Z,100493.27
2022-09-07T22:54:13.947Z,100491.11
2022-09-07T22:56:41.912Z,100489.30
2022-09-07T22:59:10.448Z,100492.87
2022-09-07T23:01:38.907Z,100490.96
2022-09-07T23:04:08.578Z,100492.50
2022-09-07T23:06:40.051Z,100488.67
2022-09-07T23:09:14.635Z,100482.05
2022-09-07T23:11:44.125Z,100480.79
2022-09-07T23:14:24.674Z,100477.40
2022-09-07T23:16:52.513Z,100467.38
2022-09-07T23:19:20.982Z,100465.29
2022-09-07T23:21:49.272Z,100464.87
2022-09-07T23:24:19.244Z,100465.27
2022-09-07T23:26:48.088Z,100456.39
2022-09-07T23:29:16.459Z,100458.09
2022-09-07T23:31:46.323Z,100453.91
2022-09-07T23:34:14.214Z,100451.72
2022-09-07T23:36:42.092Z,100445.95
2022-09-07T23:39:09.981Z,100442.91
2022-09-07T23:41:37.787Z,100440.19
2022-09-07T23:44:06.002Z,100443.36
2022-09-07T23:46:34.671Z,100438.48
2022-09-07T23:49:02.607Z,100436.64
2022-09-07T23:51:30.423Z,100431.70
2022-09-07T23:53:58.268Z,100426.13
2022-09-07T23:56:26.373Z,100425.40
2022-09-07T23:58:54.506Z,100425.08
